Time;durP1;ratioP1;P1;durP2;ratioP2;P2;SDS_P1;SDS_P2;PMS_P1;PMS_P2;Temp;Humidity;BMP_temperature;BMP_pressure;BME280_temperature;BME280_humidity;BME280_pressure;Samples;Min_cycle;Max_cycle;Signal;HPM_P1;HPM_P2
2023/10/20 00:00:20;;;;;;;3.05;2.20;;;15.40;99.90;;;;;;5094465;28;20024;-79
2023/10/20 00:02:46;;;;;;;5.25;1.95;;;15.40;99.90;;;;;;5094525;28;20016;-80
2023/10/20 00:05:13;;;;;;;2.65;1.83;;;15.40;99.90;;;;;;5094739;28;20372;-80
2023/10/20 00:07:40;;;;;;;4.20;1.77;;;15.40;99.90;;;;;;5092948;28;20205;-80
2023/10/20 00:10:09;;;;;;;2.67;2.17;;;15.40;99.90;;;;;;5093444;28;20170;-80
2023/10/20 00:12:35;;;;;;;2.17;1.67;;;15.40;99.90;;;;;;5092904;28;20595;-80
2023/10/20 00:15:01;;;;;;;2.33;1.90;;;15.40;99.90;;;;;;5093281;28;20077;-81
2023/10/20 00:17:26;;;;;;;2.83;1.80;;;15.40;99.90;;;;;;5092974;28;20480;-81
2023/10/20 00:19:53;;;;;;;3.85;1.90;;;15.40;99.90;;;;;;5093516;28;20039;-81
2023/10/20 00:22:19;;;;;;;1.95;1.70;;;15.40;99.90;;;;;;5094488;28;20087;-81
2023/10/20 00:24:45;;;;;;;1.83;1.65;;;15.40;99.90;;;;;;5094345;28;20062;-80
2023/10/20 00:27:13;;;;;;;2.60;1.75;;;15.40;99.90;;;;;;5093235;28;20063;-81
2023/10/20 00:29:40;;;;;;;5.00;1.98;;;15.40;99.90;;;;;;5093824;28;20480;-81
2023/10/20 00:32:05;;;;;;;2.97;2.00;;;15.40;99.90;;;;;;5093398;28;20028;-80
2023/10/20 00:34:31;;;;;;;4.68;2.20;;;15.30;99.90;;;;;;5092486;28;20097;-80
2023/10/20 00:36:57;;;;;;;4.40;2.00;;;15.30;99.90;;;;;;5093909;28;20024;-80
2023/10/20 00:39:23;;;;;;;3.90;1.83;;;15.30;99.90;;;;;;5092244;28;20461;-80
2023/10/20 00:41:49;;;;;;;2.80;1.95;;;15.30;99.90;;;;;;5093109;28;20073;-80
2023/10/20 00:44:14;;;;;;;3.53;1.70;;;15.30;99.90;;;;;;5094274;28;20031;-80
2023/10/20 00:46:43;;;;;;;4.00;1.90;;;15.30;99.90;;;;;;5092373;28;20039;-80
2023/10/20 00:49:09;;;;;;;3.97;2.13;;;15.30;99.90;;;;;;5094097;28;20032;-80
2023/10/20 00:51:35;;;;;;;7.35;2.33;;;15.30;99.90;;;;;;5092465;28;20411;-80
2023/10/20 00:54:01;;;;;;;3.38;1.95;;;15.30;99.90;;;;;;5092991;28;20028;-80
2023/10/20 00:56:29;;;;;;;5.75;1.98;;;15.30;99.90;;;;;;5092299;28;20024;-80
2023/10/20 00:58:54;;;;;;;2.42;2.03;;;15.30;99.90;;;;;;5093168;28;20028;-80
2023/10/20 01:01:20;;;;;;;2.60;2.15;;;15.30;99.90;;;;;;5093066;28;20479;-80
2023/10/20 01:03:46;;;;;;;4.00;2.00;;;15.30;99.90;;;;;;5092444;28;20024;-81
2023/10/20 01:06:11;;;;;;;5.82;2.30;;;15.30;99.90;;;;;;5092987;28;20020;-81
2023/10/20 01:08:37;;;;;;;5.18;1.95;;;15.30;99.90;;;;;;5092124;28;20024;-81
2023/10/20 01:11:03;;;;;;;2.53;1.95;;;15.30;99.90;;;;;;5092956;28;20025;-81
2023/10/20 01:13:28;;;;;;;3.08;2.30;;;15.30;99.90;;;;;;5093313;28;20074;-81
2023/10/20 01:15:55;;;;;;;3.17;2.20;;;15.20;99.90;;;;;;5093957;28;20024;-81
2023/10/20 01:18:20;;;;;;;5.90;2.30;;;15.20;99.90;;;;;;5092749;28;20075;-81
2023/10/20 01:20:46;;;;;;;3.25;2.03;;;15.30;99.90;;;;;;5092175;28;20020;-81
2023/10/20 01:23:11;;;;;;;3.88;2.92;;;15.20;99.90;;;;;;5092692;28;20024;-81
2023/10/20 01:25:37;;;;;;;3.00;2.30;;;15.20;99.90;;;;;;5093373;28;20028;-81
2023/10/20 01:28:03;;;;;;;4.28;2.17;;;15.20;99.90;;;;;;5093860;28;20024;-81
2023/10/20 01:30:29;;;;;;;4.15;1.92;;;15.20;99.90;;;;;;5092219;28;20056;-81
2023/10/20 01:32:54;;;;;;;5.03;2.72;;;15.20;99.90;;;;;;5093615;28;20060;-81
2023/10/20 01:35:20;;;;;;;4.35;2.03;;;15.20;99.90;;;;;;5093239;28;20044;-80
2023/10/20 01:37:46;;;;;;;3.28;2.10;;;15.30;99.90;;;;;;5093045;28;20495;-80
2023/10/20 01:40:12;;;;;;;3.20;2.30;;;15.30;99.90;;;;;;5092492;28;20020;-80
2023/10/20 01:42:38;;;;;;;4.45;2.40;;;15.30;99.90;;;;;;5093110;28;20530;-80
2023/10/20 01:45:05;;;;;;;3.45;2.15;;;15.30;99.90;;;;;;5092350;28;20036;-81
2023/10/20 01:47:31;;;;;;;4.25;2.38;;;15.30;99.90;;;;;;5092132;28;20032;-80
2023/10/20 01:49:56;;;;;;;3.67;2.60;;;15.30;99.90;;;;;;5095135;28;20035;-81
2023/10/20 01:52:22;;;;;;;3.95;2.60;;;15.30;99.90;;;;;;5096170;28;20024;-81
2023/10/20 01:54:48;;;;;;;6.13;2.85;;;15.30;99.90;;;;;;5095579;28;20024;-80
2023/10/20 01:57:13;;;;;;;5.65;2.90;;;15.30;99.90;;;;;;5097138;28;20028;-80
2023/10/20 01:59:39;;;;;;;5.13;2.75;;;15.30;99.90;;;;;;5095452;28;20113;-80
2023/10/20 02:02:05;;;;;;;4.28;2.33;;;15.20;99.90;;;;;;5096857;28;20358;-80
2023/10/20 02:04:31;;;;;;;4.63;2.55;;;15.30;99.90;;;;;;5096606;28;20111;-80
2023/10/20 02:06:56;;;;;;;5.72;2.78;;;15.20;99.90;;;;;;5096098;28;20028;-80
2023/10/20 02:09:25;;;;;;;4.22;2.90;;;15.20;99.90;;;;;;5095899;28;20036;-80
2023/10/20 02:11:51;;;;;;;5.70;2.90;;;15.20;99.90;;;;;;5096483;28;20024;-81
2023/10/20 02:14:17;;;;;;;6.18;2.88;;;15.20;99.90;;;;;;5096922;28;20030;-80
2023/10/20 02:16:43;;;;;;;4.35;2.83;;;15.20;99.90;;;;;;5094965;28;20126;-80
2023/10/20 02:19:10;;;;;;;3.90;2.70;;;15.20;99.90;;;;;;5095702;28;20457;-80
2023/10/20 02:21:37;;;;;;;5.90;3.13;;;15.20;99.90;;;;;;5095238;28;20062;-80
2023/10/20 02:24:03;;;;;;;6.95;3.47;;;15.20;99.90;;;;;;5095918;28;20024;-80
2023/10/20 02:26:29;;;;;;;5.60;3.15;;;15.20;99.90;;;;;;5095979;28;20080;-80
2023/10/20 02:28:55;;;;;;;6.82;3.30;;;15.20;99.90;;;;;;5095754;28;20040;-80
2023/10/20 02:31:20;;;;;;;6.03;3.25;;;15.20;99.90;;;;;;5095821;28;20028;-81
2023/10/20 02:33:47;;;;;;;5.97;3.72;;;15.20;99.90;;;;;;5095034;28;20021;-81
2023/10/20 02:36:20;;;;;;;5.43;3.90;;;15.20;99.90;;;;;;5096047;28;20123;-80
2023/10/20 02:38:46;;;;;;;5.78;3.47;;;15.20;99.90;;;;;;5094742;28;20028;-80
2023/10/20 02:41:14;;;;;;;4.43;3.33;;;15.10;99.90;;;;;;5096327;28;20032;-81
2023/10/20 02:43:39;;;;;;;6.30;3.40;;;15.20;99.90;;;;;;5094454;28;20028;-81
2023/10/20 02:46:05;;;;;;;4.80;2.92;;;15.10;99.90;;;;;;5095315;28;20111;-81
2023/10/20 02:48:31;;;;;;;7.22;3.22;;;15.10;99.90;;;;;;5095619;28;20063;-80
2023/10/20 02:50:57;;;;;;;4.43;2.97;;;15.10;99.90;;;;;;5095188;28;20483;-81
2023/10/20 02:53:23;;;;;;;3.65;2.50;;;15.10;99.90;;;;;;5095383;28;20074;-81
2023/10/20 02:55:48;;;;;;;6.38;2.90;;;15.10;99.90;;;;;;5095860;28;20028;-81
2023/10/20 02:58:14;;;;;;;5.15;2.90;;;15.10;99.90;;;;;;5096139;28;20461;-81
2023/10/20 03:00:44;;;;;;;3.78;2.78;;;15.00;99.90;;;;;;5093840;28;20032;-81
2023/10/20 03:03:13;;;;;;;5.72;3.08;;;15.10;99.90;;;;;;5094500;28;20077;-81
2023/10/20 03:05:45;;;;;;;4.10;3.13;;;15.00;99.90;;;;;;5094423;28;20078;-80
2023/10/20 03:08:11;;;;;;;4.30;2.65;;;15.00;99.90;;;;;;5094883;28;20362;-81
2023/10/20 03:10:37;;;;;;;4.75;2.45;;;15.00;99.90;;;;;;5094119;28;20028;-81
2023/10/20 03:13:06;;;;;;;3.75;2.67;;;15.00;99.90;;;;;;5095163;28;20474;-81
2023/10/20 03:15:31;;;;;;;5.97;2.83;;;15.10;99.90;;;;;;5095531;28;20079;-80
2023/10/20 03:17:58;;;;;;;10.13;3.08;;;15.10;99.90;;;;;;5094225;28;20113;-81
2023/10/20 03:20:28;;;;;;;3.20;2.40;;;15.10;99.90;;;;;;5095745;28;20020;-81
2023/10/20 03:22:56;;;;;;;4.68;2.50;;;15.10;99.90;;;;;;5095321;28;20055;-81
2023/10/20 03:25:22;;;;;;;5.00;2.72;;;15.00;99.90;;;;;;5094575;28;20024;-80
2023/10/20 03:27:48;;;;;;;5.35;2.67;;;15.00;99.90;;;;;;5093839;28;20477;-81
2023/10/20 03:30:16;;;;;;;8.45;3.03;;;15.00;99.90;;;;;;5095234;28;20032;-81
2023/10/20 03:32:42;;;;;;;2.88;2.13;;;15.00;99.90;;;;;;5094796;28;20029;-81
2023/10/20 03:35:08;;;;;;;3.13;2.63;;;15.10;99.90;;;;;;5095088;28;20078;-82
2023/10/20 03:37:34;;;;;;;2.47;1.88;;;15.10;99.90;;;;;;5095174;28;20028;-81
2023/10/20 03:40:00;;;;;;;2.83;2.05;;;15.10;99.90;;;;;;5095179;28;20024;-82
2023/10/20 03:42:26;;;;;;;2.53;1.60;;;15.10;99.90;;;;;;5095368;28;20031;-82
2023/10/20 03:44:53;;;;;;;3.92;1.70;;;15.10;99.90;;;;;;5093593;28;20032;-82
2023/10/20 03:47:19;;;;;;;2.50;2.03;;;15.10;99.90;;;;;;5094197;28;20491;-80
2023/10/20 03:49:45;;;;;;;3.42;1.85;;;15.10;99.90;;;;;;5093473;28;20143;-80
2023/10/20 03:52:13;;;;;;;4.80;1.73;;;15.10;99.90;;;;;;5094085;28;20024;-81
2023/10/20 03:54:39;;;;;;;2.53;1.83;;;15.10;99.90;;;;;;5094670;28;20083;-81
2023/10/20 03:57:05;;;;;;;4.97;1.83;;;15.10;99.90;;;;;;5094193;28;20055;-81
2023/10/20 03:59:32;;;;;;;6.68;1.90;;;15.10;99.90;;;;;;5093849;28;20024;-81
2023/10/20 04:01:57;;;;;;;3.80;1.95;;;15.10;99.90;;;;;;5093120;28;20024;-81
2023/10/20 04:04:23;;;;;;;2.78;1.80;;;15.10;99.90;;;;;;5094875;28;20031;-81
2023/10/20 04:06:49;;;;;;;3.13;1.85;;;15.10;99.90;;;;;;5094262;28;20036;-81
2023/10/20 04:09:17;;;;;;;3.78;2.10;;;15.10;99.90;;;;;;5093347;28;20028;-80
2023/10/20 04:11:44;;;;;;;3.55;1.83;;;15.10;99.90;;;;;;5092974;28;20020;-80
2023/10/20 04:14:10;;;;;;;6.88;2.38;;;15.10;99.90;;;;;;5093617;28;20503;-80
2023/10/20 04:16:39;;;;;;;6.63;2.13;;;15.10;99.90;;;;;;5092713;28;20051;-79
2023/10/20 04:19:09;;;;;;;3.53;2.10;;;15.10;99.90;;;;;;5093565;28;20064;-80
2023/10/20 04:21:39;;;;;;;3.47;2.00;;;15.10;99.90;;;;;;5092886;28;20028;-79
2023/10/20 04:24:09;;;;;;;3.67;1.90;;;15.10;99.90;;;;;;5094254;28;20028;-79
2023/10/20 04:26:37;;;;;;;3.63;1.80;;;15.10;99.90;;;;;;5092868;28;20024;-80
2023/10/20 04:29:13;;;;;;;3.63;1.73;;;15.00;99.90;;;;;;5093039;28;20028;-80
2023/10/20 04:46:52;;;;;;;2.22;1.73;;;15.00;99.90;;;;;;5094104;28;20024;-80
2023/10/20 04:48:19;;;;;;;2.95;1.80;;;15.00;99.90;;;;;;5093219;28;20055;-79
2023/10/20 04:56:33;;;;;;;4.47;2.05;;;15.00;99.90;;;;;;5093520;28;20118;-79
2023/10/20 04:58:40;;;;;;;2.58;1.85;;;15.00;99.90;;;;;;5087810;28;20036;-80
2023/10/20 05:01:28;;;;;;;5.40;2.33;;;15.00;99.90;;;;;;5094133;28;20111;-79
2023/10/20 05:03:57;;;;;;;3.47;1.92;;;15.00;99.90;;;;;;5092261;28;20028;-81
2023/10/20 05:06:26;;;;;;;3.63;2.08;;;15.00;99.90;;;;;;5092758;28;20028;-80
2023/10/20 05:08:52;;;;;;;3.38;2.10;;;15.00;99.90;;;;;;5093183;28;20024;-80
2023/10/20 05:11:18;;;;;;;8.32;2.42;;;14.90;99.90;;;;;;5093835;28;20035;-80
2023/10/20 05:13:43;;;;;;;4.60;2.35;;;14.90;99.90;;;;;;5092175;28;20028;-80
2023/10/20 05:16:09;;;;;;;7.57;2.38;;;14.90;99.90;;;;;;5093837;28;20095;-80
2023/10/20 05:18:36;;;;;;;5.68;2.63;;;14.90;99.90;;;;;;5093662;28;20032;-79
2023/10/20 05:21:04;;;;;;;3.97;2.50;;;14.90;99.90;;;;;;5092167;28;20112;-80
2023/10/20 05:23:30;;;;;;;3.17;2.17;;;14.90;99.90;;;;;;5094036;28;20028;-81
2023/10/20 05:25:55;;;;;;;3.58;2.10;;;14.90;99.90;;;;;;5096239;28;20024;-80
2023/10/20 05:28:23;;;;;;;6.55;2.30;;;14.90;99.90;;;;;;5097378;28;20099;-80
2023/10/20 05:30:48;;;;;;;4.65;2.17;;;14.90;99.90;;;;;;5096166;28;20039;-80
2023/10/20 05:33:15;;;;;;;4.00;2.20;;;14.90;99.90;;;;;;5096814;28;20024;-81
2023/10/20 05:35:41;;;;;;;3.83;2.20;;;14.90;99.90;;;;;;5096077;28;20484;-80
2023/10/20 05:38:07;;;;;;;7.93;2.95;;;14.90;99.90;;;;;;5097739;28;20107;-80
2023/10/20 05:40:36;;;;;;;6.07;2.00;;;14.90;99.90;;;;;;5096628;28;20480;-79
2023/10/20 05:43:05;;;;;;;4.75;2.28;;;14.90;99.90;;;;;;5096051;28;20111;-80
2023/10/20 05:45:39;;;;;;;3.78;1.90;;;14.90;99.90;;;;;;5096574;28;20043;-80
2023/10/20 05:48:08;;;;;;;3.65;2.00;;;14.90;99.90;;;;;;5096170;28;20056;-80
2023/10/20 05:50:35;;;;;;;4.97;2.10;;;14.90;99.90;;;;;;5097473;28;20503;-81
2023/10/20 05:53:01;;;;;;;2.70;1.88;;;14.90;99.90;;;;;;5096964;28;20028;-81
2023/10/20 05:55:26;;;;;;;3.67;2.13;;;14.90;99.90;;;;;;5097263;28;20092;-80
2023/10/20 05:57:52;;;;;;;4.10;1.80;;;14.90;99.90;;;;;;5095527;28;20032;-80
2023/10/20 06:00:18;;;;;;;2.78;2.30;;;14.90;99.90;;;;;;5097266;28;20024;-80
2023/10/20 06:02:44;;;;;;;4.25;1.88;;;14.90;99.90;;;;;;5096620;28;20024;-80
2023/10/20 06:05:09;;;;;;;2.55;1.80;;;14.90;99.90;;;;;;5097413;28;20036;-80
2023/10/20 06:07:35;;;;;;;2.28;1.90;;;14.90;99.90;;;;;;5097112;28;20024;-81
2023/10/20 06:10:01;;;;;;;5.53;1.90;;;14.90;99.90;;;;;;5095330;28;20517;-80
2023/10/20 06:12:26;;;;;;;3.90;2.08;;;14.90;99.90;;;;;;5095860;28;20468;-80
2023/10/20 06:14:52;;;;;;;3.65;1.92;;;14.90;99.90;;;;;;5095193;28;20400;-80
2023/10/20 06:17:18;;;;;;;3.15;1.63;;;14.90;99.90;;;;;;5095805;28;20039;-80
2023/10/20 06:19:46;;;;;;;4.00;1.50;;;14.80;99.90;;;;;;5096304;28;20024;-79
2023/10/20 06:22:12;;;;;;;2.92;1.77;;;14.90;99.90;;;;;;5095566;28;20028;-80
2023/10/20 06:24:38;;;;;;;3.50;1.75;;;14.80;99.90;;;;;;5096863;28;20031;-80
2023/10/20 06:27:04;;;;;;;3.75;1.83;;;14.90;99.90;;;;;;5095337;28;20397;-80
2023/10/20 06:32:10;;;;;;;4.53;1.80;;;14.90;99.90;;;;;;5095979;28;20369;-80
2023/10/20 06:34:40;;;;;;;2.78;1.67;;;14.80;99.90;;;;;;5095438;28;20390;-80
2023/10/20 06:37:08;;;;;;;6.80;2.10;;;14.90;99.90;;;;;;5094151;28;20389;-80
2023/10/20 06:39:38;;;;;;;2.80;1.90;;;14.90;99.90;;;;;;5095650;28;20028;-80
2023/10/20 06:42:06;;;;;;;3.65;1.95;;;14.90;99.90;;;;;;5096261;28;20034;-80
2023/10/20 06:44:34;;;;;;;3.97;2.17;;;14.90;99.90;;;;;;5095402;28;20030;-80
2023/10/20 06:46:59;;;;;;;4.45;1.80;;;14.90;99.90;;;;;;5094975;28;20032;-80
2023/10/20 06:49:25;;;;;;;2.90;2.00;;;14.90;99.90;;;;;;5095506;28;20034;-81
2023/10/20 06:51:51;;;;;;;2.88;2.13;;;14.90;99.90;;;;;;5094595;28;20032;-80
2023/10/20 06:54:17;;;;;;;2.50;1.85;;;14.90;99.90;;;;;;5095314;28;20077;-81
2023/10/20 06:56:43;;;;;;;4.18;2.30;;;14.90;99.90;;;;;;5095085;28;20028;-80
2023/10/20 06:59:15;;;;;;;2.78;1.92;;;14.90;99.90;;;;;;5095258;28;20115;-80
2023/10/20 07:01:41;;;;;;;5.68;2.35;;;14.90;99.90;;;;;;5094418;28;20032;-80
2023/10/20 07:04:10;;;;;;;3.95;2.38;;;14.90;99.90;;;;;;5093921;28;20024;-80
2023/10/20 07:06:36;;;;;;;5.38;2.17;;;14.90;99.90;;;;;;5094550;28;20020;-81
2023/10/20 07:09:11;;;;;;;3.83;2.47;;;14.90;99.90;;;;;;5094440;28;20055;-80
2023/10/20 07:11:40;;;;;;;5.32;2.25;;;14.90;99.90;;;;;;5094765;28;20020;-79
2023/10/20 07:14:06;;;;;;;2.40;2.00;;;14.90;99.90;;;;;;5093376;28;20016;-79
2023/10/20 07:16:33;;;;;;;4.43;2.55;;;14.90;99.90;;;;;;5094573;28;20024;-81
2023/10/20 07:19:02;;;;;;;3.35;2.10;;;15.00;99.90;;;;;;5093756;28;20031;-80
2023/10/20 07:21:28;;;;;;;4.05;2.45;;;15.00;99.90;;;;;;5094779;28;20103;-80
2023/10/20 07:23:55;;;;;;;4.22;2.20;;;15.00;99.90;;;;;;5094696;28;20051;-80
2023/10/20 07:26:21;;;;;;;7.15;2.47;;;15.10;99.90;;;;;;5094215;28;20031;-80
2023/10/20 07:28:47;;;;;;;3.28;2.13;;;15.10;99.90;;;;;;5094454;28;20400;-80
2023/10/20 07:31:14;;;;;;;4.97;2.58;;;15.10;99.90;;;;;;5095086;28;20031;-81
2023/10/20 07:33:40;;;;;;;4.28;2.38;;;15.10;99.90;;;;;;5093706;28;20030;-80
2023/10/20 07:36:05;;;;;;;4.50;2.63;;;15.10;99.90;;;;;;5093097;28;20062;-79
2023/10/20 07:38:31;;;;;;;2.90;2.38;;;15.10;99.90;;;;;;5094740;28;20477;-80
2023/10/20 07:41:04;;;;;;;3.13;2.13;;;15.10;99.90;;;;;;5093338;28;20047;-80
2023/10/20 07:43:30;;;;;;;4.00;1.90;;;15.10;99.90;;;;;;5093621;28;20107;-81
2023/10/20 07:45:55;;;;;;;4.75;2.50;;;15.10;99.90;;;;;;5094125;28;20026;-81
2023/10/20 07:48:21;;;;;;;4.10;2.58;;;15.10;99.90;;;;;;5092822;28;20028;-81
2023/10/20 07:50:47;;;;;;;3.65;2.20;;;15.10;99.90;;;;;;5091079;28;20072;-81
2023/10/20 07:53:13;;;;;;;4.00;2.20;;;15.10;99.90;;;;;;5095793;28;20024;-81
2023/10/20 07:55:39;;;;;;;4.25;2.38;;;15.10;99.90;;;;;;5093062;28;20023;-81
2023/10/20 07:58:04;;;;;;;3.40;2.40;;;15.10;99.90;;;;;;5104382;28;20096;-82
2023/10/20 08:00:30;;;;;;;4.55;2.00;;;15.20;99.90;;;;;;5099514;28;20062;-86
2023/10/20 08:02:56;;;;;;;6.40;2.33;;;15.10;99.90;;;;;;5107107;28;20023;-85
2023/10/20 08:05:24;;;;;;;5.47;2.50;;;15.10;99.90;;;;;;5096936;28;20031;-85
2023/10/20 08:07:50;;;;;;;4.25;2.40;;;15.10;99.90;;;;;;5108233;28;20032;-86
2023/10/20 08:10:15;;;;;;;3.88;2.55;;;15.20;99.90;;;;;;5093379;28;20471;-87
2023/10/20 08:12:41;;;;;;;4.00;2.58;;;15.10;99.90;;;;;;5104672;28;20440;-85
2023/10/20 08:15:08;;;;;;;4.03;2.67;;;15.10;99.90;;;;;;5098081;28;20028;-86
2023/10/20 08:17:34;;;;;;;5.18;2.75;;;15.10;99.90;;;;;;5110028;28;20062;-86
2023/10/20 08:19:59;;;;;;;3.55;2.50;;;15.20;99.90;;;;;;5098624;28;20020;-86
2023/10/20 08:22:25;;;;;;;5.18;2.80;;;15.20;99.90;;;;;;5093768;28;20537;-83
2023/10/20 08:24:51;;;;;;;6.38;2.90;;;15.20;99.90;;;;;;5105564;28;20032;-81
2023/10/20 08:27:18;;;;;;;5.68;3.03;;;15.20;99.90;;;;;;5097725;28;20059;-82
2023/10/20 08:29:48;;;;;;;4.07;2.50;;;15.20;99.90;;;;;;5109268;28;20062;-82
2023/10/20 08:32:13;;;;;;;3.75;2.80;;;15.20;99.90;;;;;;5102066;28;20019;-82
2023/10/20 08:34:39;;;;;;;4.38;3.28;;;15.20;99.90;;;;;;5101041;28;20024;-82
2023/10/20 08:37:04;;;;;;;8.23;3.08;;;15.20;99.90;;;;;;5109108;28;20106;-82
2023/10/20 08:39:30;;;;;;;5.93;3.28;;;15.30;99.90;;;;;;5096302;28;20028;-81
2023/10/20 08:41:58;;;;;;;6.07;3.10;;;15.30;99.90;;;;;;5106967;28;20182;-82
2023/10/20 08:44:25;;;;;;;7.95;3.53;;;15.30;99.90;;;;;;5103333;28;20479;-81
2023/10/20 08:46:51;;;;;;;5.80;3.03;;;15.30;99.90;;;;;;5091403;28;20036;-82
2023/10/20 08:49:18;;;;;;;7.00;3.08;;;15.40;99.90;;;;;;5106143;28;20030;-82
2023/10/20 08:51:45;;;;;;;4.90;3.08;;;15.40;99.90;;;;;;5087355;28;20073;-83
2023/10/20 08:54:13;;;;;;;5.28;3.38;;;15.40;99.90;;;;;;5104507;28;20028;-83
2023/10/20 08:56:40;;;;;;;7.78;3.00;;;15.50;99.90;;;;;;5104409;28;20023;-82
2023/10/20 08:59:07;;;;;;;7.07;3.22;;;15.50;99.90;;;;;;5096351;28;20035;-82
2023/10/20 09:01:33;;;;;;;6.68;2.95;;;15.50;99.90;;;;;;5106351;28;20452;-81
2023/10/20 09:04:00;;;;;;;7.70;3.30;;;15.50;99.90;;;;;;5107340;28;20086;-82
2023/10/20 09:06:27;;;;;;;9.15;3.45;;;15.50;99.90;;;;;;5102260;28;20091;-81
2023/10/20 09:08:53;;;;;;;5.18;3.25;;;15.60;99.90;;;;;;5098660;28;20034;-83
2023/10/20 09:11:19;;;;;;;5.38;2.67;;;15.60;99.90;;;;;;5106021;28;20111;-82
2023/10/20 09:13:47;;;;;;;6.55;3.47;;;15.60;99.90;;;;;;5096547;28;20019;-83
2023/10/20 09:16:14;;;;;;;7.30;3.53;;;15.60;99.90;;;;;;5106133;28;20024;-83
2023/10/20 09:18:47;;;;;;;6.57;3.78;;;15.70;99.90;;;;;;5099897;28;20040;-82
2023/10/20 09:21:18;;;;;;;7.65;3.47;;;15.60;99.90;;;;;;5093578;28;20020;-81
2023/10/20 09:23:54;;;;;;;5.33;3.30;;;15.70;99.90;;;;;;5082684;28;20030;-81
2023/10/20 09:26:21;;;;;;;10.55;3.53;;;15.80;99.90;;;;;;5092875;28;20035;-81
2023/10/20 09:28:50;;;;;;;6.97;3.17;;;15.80;99.90;;;;;;5089242;28;20059;-86
2023/10/20 09:31:17;;;;;;;5.15;2.90;;;15.80;99.90;;;;;;5093950;28;20051;-84
2023/10/20 09:33:43;;;;;;;5.30;2.83;;;15.80;99.90;;;;;;5093947;28;20039;-83
2023/10/20 09:36:11;;;;;;;4.25;2.90;;;15.90;99.90;;;;;;5100025;28;20051;-84
2023/10/20 09:38:37;;;;;;;5.95;3.13;;;15.90;99.90;;;;;;5098466;28;20035;-84
2023/10/20 09:41:12;;;;;;;5.38;3.30;;;16.00;99.90;;;;;;5094407;28;20468;-82
2023/10/20 09:43:54;;;;;;;4.63;2.70;;;16.10;99.90;;;;;;5098653;28;20034;-81
2023/10/20 09:46:24;;;;;;;;;;;16.10;99.90;;;;;;5108913;28;20106;-81
2023/10/20 09:48:53;;;;;;;4.75;3.03;;;16.20;99.90;;;;;;5098526;28;19912;-80
2023/10/20 09:51:22;;;;;;;6.72;2.45;;;16.30;99.90;;;;;;5099266;28;20119;-81
2023/10/20 09:53:49;;;;;;;5.72;2.70;;;16.30;99.90;;;;;;5107087;28;20031;-81
2023/10/20 09:56:17;;;;;;;5.20;2.40;;;16.40;99.90;;;;;;5112157;28;20032;-81
2023/10/20 09:58:43;;;;;;;9.27;3.50;;;16.50;99.90;;;;;;5099874;28;20028;-87
2023/10/20 10:01:13;;;;;;;3.55;2.03;;;16.50;99.90;;;;;;5108510;28;20316;-81
2023/10/20 10:03:40;;;;;;;7.20;2.10;;;16.50;99.90;;;;;;5095353;28;20024;-83
2023/10/20 10:06:12;;;;;;;4.05;2.20;;;16.50;99.90;;;;;;5104620;28;20362;-83
2023/10/20 10:08:40;;;;;;;4.10;2.00;;;16.50;99.90;;;;;;5103363;28;20035;-83
2023/10/20 10:11:29;;;;;;;4.32;2.40;;;16.50;99.90;;;;;;5098198;28;20486;-82
2023/10/20 10:13:59;;;;;;;5.13;1.88;;;16.40;99.90;;;;;;5094971;28;20480;-83
2023/10/20 10:16:25;;;;;;;3.03;1.90;;;16.50;99.90;;;;;;5096181;28;20077;-81
2023/10/20 10:18:54;;;;;;;2.58;1.77;;;16.50;99.90;;;;;;5108272;28;20042;-81
2023/10/20 10:21:24;;;;;;;3.13;1.77;;;16.50;99.90;;;;;;5100711;28;20024;-82
2023/10/20 10:24:18;;;;;;;3.88;1.70;;;16.50;99.90;;;;;;5103584;28;20044;-83
2023/10/20 10:26:59;;;;;;;2.67;1.75;;;16.60;99.90;;;;;;5096666;28;20032;-81
2023/10/20 10:29:53;;;;;;;2.22;1.83;;;16.70;99.90;;;;;;5112265;28;20031;-82
2023/10/20 10:32:21;;;;;;;5.47;2.42;;;16.70;99.90;;;;;;5099081;28;20031;-82
2023/10/20 10:34:54;;;;;;;3.72;1.70;;;16.70;99.90;;;;;;5094643;28;20028;-82
2023/10/20 10:37:46;;;;;;;2.97;1.80;;;16.60;99.90;;;;;;5094597;28;20473;-78
2023/10/20 10:40:13;;;;;;;;;;;16.70;99.90;;;;;;5103356;28;20495;-78
2023/10/20 10:42:44;;;;;;;2.28;1.70;;;16.70;99.90;;;;;;5107647;28;19932;-81
2023/10/20 10:45:34;;;;;;;2.93;1.60;;;16.80;99.90;;;;;;5098757;28;20276;-83
2023/10/20 10:48:02;;;;;;;5.80;2.10;;;16.90;99.90;;;;;;5082290;28;20035;-83
2023/10/20 10:50:28;;;;;;;6.03;1.80;;;17.00;99.90;;;;;;5100467;28;20028;-83
2023/10/20 10:52:54;;;;;;;3.22;2.00;;;17.10;99.90;;;;;;5106849;28;20357;-81
2023/10/20 10:55:20;;;;;;;2.25;1.65;;;17.00;99.90;;;;;;5112925;28;20024;-82
2023/10/20 10:57:46;;;;;;;3.03;1.90;;;17.00;99.90;;;;;;5096897;28;20532;-85
2023/10/20 11:00:15;;;;;;;4.45;2.22;;;17.00;99.90;;;;;;5108846;28;20107;-83
2023/10/20 11:02:45;;;;;;;3.28;1.58;;;17.00;99.90;;;;;;5095326;28;20035;-83
2023/10/20 11:05:11;;;;;;;3.45;1.77;;;17.10;99.90;;;;;;5094610;28;20028;-83
2023/10/20 11:07:37;;;;;;;2.17;1.50;;;17.20;99.90;;;;;;5111110;28;20097;-83
2023/10/20 11:10:04;;;;;;;2.53;1.30;;;17.20;99.90;;;;;;5101596;28;20031;-84
2023/10/20 11:12:31;;;;;;;3.22;1.23;;;17.30;99.90;;;;;;5104365;28;20201;-83
2023/10/20 11:14:59;;;;;;;2.00;1.38;;;17.20;99.90;;;;;;5101774;28;20045;-83
2023/10/20 11:17:25;;;;;;;2.83;1.00;;;17.40;99.90;;;;;;5099422;28;20028;-82
2023/10/20 11:19:51;;;;;;;1.00;0.90;;;17.50;99.90;;;;;;5109282;28;20164;-79
2023/10/20 11:22:16;;;;;;;0.85;0.70;;;17.50;99.90;;;;;;5101943;28;20076;-82
2023/10/20 11:24:49;;;;;;;1.85;1.35;;;17.60;99.90;;;;;;5103246;28;20028;-82
2023/10/20 11:27:15;;;;;;;1.27;0.77;;;17.60;99.90;;;;;;5110552;28;20147;-81
2023/10/20 11:29:42;;;;;;;1.27;0.80;;;17.60;99.90;;;;;;5097288;28;20064;-81
2023/10/20 11:32:10;;;;;;;2.28;0.70;;;17.70;99.90;;;;;;5107064;28;20020;-81
2023/10/20 11:34:36;;;;;;;0.93;0.75;;;17.70;99.90;;;;;;5104677;28;20034;-83
2023/10/20 11:37:04;;;;;;;0.88;0.45;;;17.80;99.90;;;;;;5098590;28;20028;-82
2023/10/20 11:39:31;;;;;;;0.52;0.40;;;17.80;99.90;;;;;;5112050;28;20027;-82
2023/10/20 11:41:57;;;;;;;0.82;0.50;;;17.90;99.90;;;;;;5098818;28;20027;-81
2023/10/20 11:44:26;;;;;;;1.25;0.43;;;17.90;99.90;;;;;;5105127;28;20047;-81
2023/10/20 11:46:53;;;;;;;1.00;0.40;;;18.10;99.90;;;;;;5096387;28;20139;-82
2023/10/20 11:49:24;;;;;;;0.30;0.20;;;18.10;99.90;;;;;;5097740;28;20028;-83
2023/10/20 11:51:50;;;;;;;0.20;0.20;;;18.10;99.90;;;;;;5100338;28;20127;-82
2023/10/20 11:54:16;;;;;;;0.28;0.20;;;18.10;99.90;;;;;;5101717;28;20384;-82
2023/10/20 11:56:42;;;;;;;0.82;0.20;;;18.10;99.90;;;;;;5104123;28;20119;-82
2023/10/20 11:59:09;;;;;;;2.28;0.30;;;18.10;99.90;;;;;;5098652;28;20031;-82
2023/10/20 12:01:35;;;;;;;0.45;0.30;;;18.10;99.90;;;;;;5109977;28;20055;-82
2023/10/20 12:04:03;;;;;;;0.22;0.10;;;18.10;99.90;;;;;;5100160;28;20035;-85
2023/10/20 12:06:28;;;;;;;0.65;0.30;;;18.10;99.90;;;;;;5094976;28;20028;-81
2023/10/20 12:08:55;;;;;;;1.48;0.15;;;18.20;99.90;;;;;;5106966;28;20030;-83
2023/10/20 12:11:20;;;;;;;0.30;0.20;;;18.20;99.90;;;;;;5089909;28;20083;-82
2023/10/20 12:13:49;;;;;;;0.60;0.38;;;18.20;99.90;;;;;;5109245;28;20493;-81
2023/10/20 12:16:15;;;;;;;0.30;0.20;;;18.20;99.90;;;;;;5100602;28;20027;-83
2023/10/20 12:18:43;;;;;;;0.30;0.20;;;18.30;99.90;;;;;;5100574;28;20044;-81
2023/10/20 12:21:09;;;;;;;1.17;0.10;;;18.30;99.90;;;;;;5093490;28;20024;-80
2023/10/20 12:23:36;;;;;;;0.38;0.20;;;18.30;99.90;;;;;;5094096;28;20085;-80
2023/10/20 12:26:03;;;;;;;1.33;0.20;;;18.40;99.90;;;;;;5099973;28;20055;-85
2023/10/20 12:28:28;;;;;;;1.35;0.20;;;18.50;99.90;;;;;;5102987;28;20121;-82
2023/10/20 12:30:54;;;;;;;0.30;0.20;;;18.50;99.90;;;;;;5106653;28;20127;-86
2023/10/20 12:33:20;;;;;;;1.38;0.93;;;18.60;99.90;;;;;;5096138;28;20024;-87
2023/10/20 12:35:46;;;;;;;1.17;0.17;;;18.70;99.90;;;;;;5108524;28;20056;-87
2023/10/20 12:38:12;;;;;;;0.22;0.10;;;18.90;99.90;;;;;;5092419;28;20039;-86
2023/10/20 12:40:41;;;;;;;0.20;0.20;;;19.10;99.90;;;;;;5105384;28;20471;-81
2023/10/20 12:43:09;;;;;;;0.45;0.30;;;19.30;99.90;;;;;;5110455;28;20115;-83
2023/10/20 12:45:38;;;;;;;0.30;0.20;;;19.50;99.90;;;;;;5093020;28;20020;-81
2023/10/20 12:48:05;;;;;;;0.57;0.20;;;19.30;99.90;;;;;;5094041;28;20031;-82
2023/10/20 12:50:32;;;;;;;1.33;0.10;;;19.30;99.90;;;;;;5095637;28;20046;-81
2023/10/20 12:52:59;;;;;;;0.80;0.30;;;19.50;99.90;;;;;;5092292;28;20054;-81
2023/10/20 12:55:30;;;;;;;0.70;0.20;;;19.40;99.90;;;;;;5093696;28;20028;-82
2023/10/20 12:57:56;;;;;;;0.22;0.17;;;19.50;99.90;;;;;;5092578;28;20088;-81
2023/10/20 13:00:22;;;;;;;0.45;0.20;;;19.40;99.90;;;;;;5093003;28;20115;-82
2023/10/20 13:02:52;;;;;;;1.40;0.28;;;19.20;99.90;;;;;;5095012;28;20032;-83
2023/10/20 13:05:18;;;;;;;0.20;0.20;;;19.00;99.90;;;;;;5110123;28;20051;-84
2023/10/20 13:07:44;;;;;;;3.35;0.20;;;18.90;99.90;;;;;;5096239;28;20027;-85
2023/10/20 13:10:10;;;;;;;0.50;0.20;;;18.70;99.90;;;;;;5105008;28;20055;-84